createdAt,value
2018-07-17T00:00:18.142Z,21.50
2018-07-17T00:02:45.770Z,21.50
2018-07-17T00:05:13.369Z,21.50
2018-07-17T00:07:41.013Z,21.50
2018-07-17T00:10:08.665Z,21.50
2018-07-17T00:12:36.486Z,21.50
2018-07-17T00:15:04.236Z,21.50
2018-07-17T00:17:32.153Z,21.50
2018-07-17T00:19:59.715Z,21.50
2018-07-17T00:22:27.315Z,21.50
2018-07-17T00:24:54.902Z,21.50
2018-07-17T00:27:22.462Z,21.50
2018-07-17T00:29:50.248Z,21.50
2018-07-17T00:32:17.804Z,21.50
2018-07-17T00:34:45.388Z,21.50
2018-07-17T00:37:13.100Z,21.50
2018-07-17T00:39:40.669Z,21.50
2018-07-17T00:42:08.281Z,21.60
2018-07-17T00:44:35.860Z,21.60
2018-07-17T00:47:03.472Z,21.70
2018-07-17T00:49:31.013Z,21.60
2018-07-17T00:51:58.585Z,21.60
2018-07-17T00:54:26.423Z,21.70
2018-07-17T00:56:54.014Z,21.70
2018-07-17T00:59:21.580Z,21.70
2018-07-17T01:04:28.154Z,21.70
2018-07-17T01:07:01.413Z,21.60
2018-07-17T01:09:34.593Z,21.60
2018-07-17T01:12:07.878Z,21.60
2018-07-17T01:15:08.210Z,21.50
2018-07-17T01:17:36.475Z,21.50
2018-07-17T01:20:04.185Z,21.50
2018-07-17T01:22:31.797Z,21.50
2018-07-17T01:24:59.405Z,21.40
2018-07-17T01:27:26.960Z,21.40
2018-07-17T01:29:54.542Z,21.40
2018-07-17T01:32:22.118Z,21.30
2018-07-17T01:34:49.676Z,21.30
2018-07-17T01:37:17.315Z,21.20
2018-07-17T01:39:44.919Z,21.00
2018-07-17T01:42:12.515Z,21.00
2018-07-17T01:44:40.088Z,20.90
2018-07-17T01:47:07.680Z,20.90
2018-07-17T01:49:35.246Z,20.90
2018-07-17T01:52:02.829Z,20.80
2018-07-17T01:54:30.426Z,20.90
2018-07-17T01:56:57.965Z,20.90
2018-07-17T01:59:25.632Z,20.90
2018-07-17T02:01:53.264Z,20.90
2018-07-17T02:04:20.961Z,20.80
2018-07-17T02:06:48.549Z,20.80
2018-07-17T02:09:16.166Z,20.80
2018-07-17T02:11:43.753Z,20.70
2018-07-17T02:14:11.338Z,20.70
2018-07-17T02:16:39.226Z,20.80
2018-07-17T02:19:06.816Z,20.80
2018-07-17T02:21:34.414Z,20.80
2018-07-17T02:24:02.045Z,20.80
2018-07-17T02:26:29.641Z,20.80
2018-07-17T02:28:57.245Z,20.90
2018-07-17T02:31:24.839Z,20.80
2018-07-17T02:33:52.460Z,20.80
2018-07-17T02:36:20.240Z,20.80
2018-07-17T02:38:47.909Z,20.80
2018-07-17T02:41:15.492Z,20.80
2018-07-17T02:43:43.291Z,20.80
2018-07-17T02:46:16.613Z,20.90
2018-07-17T02:48:44.525Z,20.90
2018-07-17T02:51:12.120Z,20.90
2018-07-17T02:53:39.750Z,20.90
2018-07-17T02:56:07.453Z,20.80
2018-07-17T02:58:35.037Z,20.70
2018-07-17T03:01:02.598Z,20.60
2018-07-17T03:03:30.203Z,20.70
2018-07-17T03:05:57.777Z,20.70
2018-07-17T03:08:25.424Z,20.70
2018-07-17T03:10:53.007Z,20.70
2018-07-17T03:13:20.622Z,20.80
2018-07-17T03:15:48.258Z,20.80
2018-07-17T03:18:15.870Z,20.80
2018-07-17T03:20:43.525Z,20.70
2018-07-17T03:23:11.109Z,20.70
2018-07-17T03:25:38.694Z,20.70
2018-07-17T03:28:06.568Z,20.70
2018-07-17T03:30:34.206Z,20.60
2018-07-17T03:33:01.769Z,20.60
2018-07-17T03:35:29.442Z,20.60
2018-07-17T03:37:57.219Z,20.60
2018-07-17T03:40:24.782Z,20.60
2018-07-17T03:42:52.382Z,20.50
2018-07-17T03:45:20.091Z,20.50
2018-07-17T03:47:47.718Z,20.40
2018-07-17T03:50:15.317Z,20.40
2018-07-17T03:52:42.914Z,20.40
2018-07-17T03:55:10.540Z,20.40
2018-07-17T03:57:38.156Z,20.40
2018-07-17T04:00:06.022Z,20.40
2018-07-17T04:02:33.663Z,20.40
2018-07-17T04:05:01.296Z,20.40
2018-07-17T04:07:28.980Z,20.40
2018-07-17T04:09:56.576Z,20.50
2018-07-17T04:12:24.374Z,20.50
2018-07-17T04:14:51.950Z,20.50
2018-07-17T04:17:19.604Z,20.50
2018-07-17T04:19:47.280Z,20.40
2018-07-17T04:22:14.873Z,20.40
2018-07-17T04:24:42.542Z,20.50
2018-07-17T04:27:10.204Z,20.50
2018-07-17T04:29:37.786Z,20.50
2018-07-17T04:32:05.527Z,20.40
2018-07-17T04:34:33.149Z,20.40
2018-07-17T04:37:00.757Z,20.50
2018-07-17T04:39:28.398Z,20.50
2018-07-17T04:41:56.107Z,20.50
2018-07-17T04:44:23.689Z,20.60
2018-07-17T04:46:51.315Z,20.70
2018-07-17T04:49:18.935Z,20.70
2018-07-17T04:51:46.575Z,20.80
2018-07-17T04:54:14.153Z,20.90
2018-07-17T04:56:41.758Z,20.90
2018-07-17T05:01:36.933Z,21.10
2018-07-17T05:04:04.795Z,21.10
2018-07-17T05:06:32.394Z,21.20
2018-07-17T05:08:59.999Z,21.30
2018-07-17T05:11:27.653Z,21.40
2018-07-17T05:13:55.210Z,21.60
2018-07-17T05:16:22.883Z,21.60
2018-07-17T05:18:50.472Z,21.70
2018-07-17T05:21:18.063Z,22.00
2018-07-17T05:23:45.782Z,22.00
2018-07-17T05:26:13.372Z,22.20
2018-07-17T05:28:40.952Z,22.40
2018-07-17T05:31:08.593Z,22.60
2018-07-17T05:33:36.174Z,23.20
2018-07-17T05:36:03.740Z,24.20
2018-07-17T05:38:31.390Z,25.60
2018-07-17T05:40:59.002Z,26.70
2018-07-17T05:43:26.567Z,27.40
2018-07-17T05:45:54.206Z,27.70
2018-07-17T05:48:21.784Z,28.40
2018-07-17T05:50:49.405Z,28.60
2018-07-17T05:53:16.975Z,29.00
2018-07-17T05:55:44.587Z,29.40
2018-07-17T05:58:12.138Z,30.30
2018-07-17T06:00:39.829Z,30.90
2018-07-17T06:03:07.670Z,30.50
2018-07-17T06:05:35.226Z,30.80
2018-07-17T06:08:03.325Z,30.70
2018-07-17T06:10:30.938Z,30.70
2018-07-17T06:12:58.573Z,31.00
2018-07-17T06:15:26.169Z,30.90
2018-07-17T06:17:53.785Z,31.50
2018-07-17T06:20:21.399Z,31.90
2018-07-17T06:22:48.994Z,32.00
2018-07-17T06:25:16.631Z,32.50
2018-07-17T06:27:44.378Z,31.80
2018-07-17T06:30:11.982Z,30.90
2018-07-17T06:32:39.871Z,30.10
2018-07-17T06:35:07.521Z,29.30
2018-07-17T06:37:35.346Z,29.00
2018-07-17T06:40:03.089Z,28.90
2018-07-17T06:42:30.657Z,28.50
2018-07-17T06:44:58.236Z,29.10
2018-07-17T06:47:25.848Z,29.90
2018-07-17T06:49:53.492Z,29.90
2018-07-17T06:54:48.600Z,29.20
2018-07-17T06:57:16.507Z,28.90
2018-07-17T06:59:44.162Z,28.50
2018-07-17T07:02:11.784Z,28.10
2018-07-17T07:04:39.393Z,27.90
2018-07-17T07:07:07.034Z,27.60
2018-07-17T07:09:34.673Z,27.70
2018-07-17T07:12:02.353Z,27.20
2018-07-17T07:14:29.995Z,26.60
2018-07-17T07:16:57.562Z,26.40
2018-07-17T07:19:25.174Z,26.50
2018-07-17T07:21:52.877Z,26.50
2018-07-17T07:24:20.500Z,26.60
2018-07-17T07:26:48.188Z,26.60
2018-07-17T07:29:15.768Z,26.60
2018-07-17T07:31:43.386Z,26.60
2018-07-17T07:34:11.005Z,26.50
2018-07-17T07:36:38.577Z,26.40
2018-07-17T07:39:07.987Z,26.60
2018-07-17T07:41:35.573Z,26.70
2018-07-17T07:44:03.497Z,26.50
2018-07-17T07:46:31.173Z,26.60
2018-07-17T07:48:58.816Z,26.80
2018-07-17T07:51:26.417Z,26.90
2018-07-17T07:53:54.109Z,27.10
2018-07-17T07:56:21.709Z,27.00
2018-07-17T07:58:49.363Z,27.10
2018-07-17T08:01:16.969Z,27.40
2018-07-17T08:03:44.597Z,27.90
2018-07-17T08:06:12.247Z,28.80
2018-07-17T08:08:39.914Z,29.60
2018-07-17T08:11:07.621Z,30.00
2018-07-17T08:13:35.286Z,30.80
2018-07-17T08:16:02.880Z,31.40
2018-07-17T08:18:30.514Z,31.40
2018-07-17T08:20:58.074Z,31.70
2018-07-17T08:25:53.405Z,33.60
2018-07-17T08:28:21.022Z,33.90
2018-07-17T08:30:48.609Z,33.70
2018-07-17T08:33:16.258Z,34.70
2018-07-17T08:35:43.976Z,36.10
2018-07-17T08:38:11.521Z,36.30
2018-07-17T08:40:39.376Z,35.70
2018-07-17T08:43:07.109Z,36.20
2018-07-17T08:45:34.695Z,36.30
2018-07-17T08:48:02.380Z,36.70
2018-07-17T08:50:29.960Z,37.00
2018-07-17T08:52:57.609Z,36.40
2018-07-17T08:55:25.252Z,35.40
2018-07-17T08:57:52.851Z,35.20
2018-07-17T09:00:20.573Z,35.80
2018-07-17T09:02:48.287Z,36.30
2018-07-17T09:05:15.934Z,37.50
2018-07-17T09:07:43.545Z,37.40
2018-07-17T09:10:11.197Z,37.60
2018-07-17T09:12:38.813Z,37.90
2018-07-17T09:15:06.473Z,38.90
2018-07-17T09:17:34.374Z,39.40
2018-07-17T09:20:02.061Z,39.70
2018-07-17T09:22:29.673Z,39.70
2018-07-17T09:24:57.372Z,39.90
2018-07-17T09:27:24.988Z,39.10
2018-07-17T09:29:52.634Z,39.50
2018-07-17T09:32:20.293Z,40.00
2018-07-17T09:34:48.259Z,38.90
2018-07-17T09:37:15.943Z,38.20
2018-07-17T09:39:43.585Z,37.10
2018-07-17T09:42:11.257Z,35.90
2018-07-17T09:44:38.882Z,34.90
2018-07-17T09:47:06.546Z,33.60
2018-07-17T09:49:34.227Z,32.10
2018-07-17T09:52:01.881Z,30.80
2018-07-17T09:54:29.625Z,30.10
2018-07-17T09:56:57.191Z,29.90
2018-07-17T09:59:24.868Z,29.70
2018-07-17T10:02:26.633Z,29.40
2018-07-17T10:04:54.387Z,29.50
2018-07-17T10:07:22.030Z,29.70
2018-07-17T10:09:49.673Z,30.50
2018-07-17T10:12:17.278Z,31.60
2018-07-17T10:14:44.949Z,33.00
2018-07-17T10:17:12.570Z,33.40
2018-07-17T10:19:40.171Z,34.30
2018-07-17T10:22:07.857Z,35.40
2018-07-17T10:24:35.733Z,36.70
2018-07-17T10:27:03.548Z,37.60
2018-07-17T10:29:31.154Z,37.50
2018-07-17T10:31:59.083Z,37.70
2018-07-17T10:34:26.700Z,37.70
2018-07-17T10:36:54.322Z,37.70
2018-07-17T10:39:22.169Z,38.50
2018-07-17T10:41:49.825Z,37.70
2018-07-17T10:44:17.542Z,37.30
2018-07-17T10:46:45.134Z,36.90
2018-07-17T10:49:12.797Z,37.10
2018-07-17T10:51:40.412Z,37.70
2018-07-17T10:54:08.109Z,37.40
2018-07-17T10:56:35.977Z,36.90
2018-07-17T10:59:04.197Z,35.40
2018-07-17T11:01:31.848Z,34.00
2018-07-17T11:03:59.539Z,32.80
2018-07-17T11:06:27.170Z,32.10
2018-07-17T11:08:54.837Z,31.50
2018-07-17T11:11:22.453Z,31.00
2018-07-17T11:13:50.055Z,30.90
2018-07-17T11:16:17.922Z,31.20
2018-07-17T11:21:13.203Z,31.40
2018-07-17T11:23:40.870Z,31.60
2018-07-17T11:26:08.506Z,31.80
2018-07-17T11:28:36.175Z,32.10
2018-07-17T11:31:03.877Z,32.10
2018-07-17T11:33:31.485Z,32.00
2018-07-17T11:35:59.148Z,31.60
2018-07-17T11:38:26.948Z,31.40
2018-07-17T11:40:54.596Z,31.30
2018-07-17T11:43:22.234Z,30.80
2018-07-17T11:45:49.877Z,30.80
2018-07-17T11:48:17.481Z,31.00
2018-07-17T11:50:45.087Z,31.20
2018-07-17T11:53:12.778Z,31.10
2018-07-17T11:55:40.366Z,31.10
2018-07-17T11:58:07.966Z,31.50
2018-07-17T12:00:35.582Z,31.60
2018-07-17T12:03:03.217Z,31.30
2018-07-17T12:05:30.896Z,31.00
2018-07-17T12:07:58.496Z,31.30
2018-07-17T12:10:26.101Z,31.50
2018-07-17T12:12:54.058Z,30.90
2018-07-17T12:15:21.733Z,30.90
2018-07-17T12:17:49.364Z,31.10
2018-07-17T12:20:17.145Z,31.30
2018-07-17T12:22:44.785Z,31.60
2018-07-17T12:25:12.477Z,31.60
2018-07-17T12:27:40.088Z,31.50
2018-07-17T12:30:08.020Z,31.20
2018-07-17T12:32:35.665Z,31.20
2018-07-17T12:35:03.597Z,31.70
2018-07-17T12:37:31.481Z,32.00
2018-07-17T12:39:59.153Z,32.20
2018-07-17T12:42:26.844Z,32.60
2018-07-17T12:44:54.445Z,32.80
2018-07-17T12:47:22.070Z,32.50
2018-07-17T12:49:49.820Z,32.20
2018-07-17T12:52:17.481Z,32.20
2018-07-17T12:54:45.079Z,31.80
2018-07-17T12:57:12.743Z,31.30
2018-07-17T12:59:40.361Z,31.00
2018-07-17T13:02:08.288Z,30.60
2018-07-17T13:04:36.063Z,30.70
2018-07-17T13:07:03.710Z,30.80
2018-07-17T13:09:31.777Z,30.90
2018-07-17T13:11:59.769Z,31.10
2018-07-17T13:14:27.399Z,31.10
2018-07-17T13:16:55.029Z,31.10
2018-07-17T13:19:22.692Z,31.20
2018-07-17T13:21:50.346Z,31.30
2018-07-17T13:24:17.969Z,31.50
2018-07-17T13:26:45.594Z,31.50
2018-07-17T13:29:13.213Z,31.50
2018-07-17T13:31:40.858Z,31.40
2018-07-17T13:34:08.525Z,31.40
2018-07-17T13:36:36.445Z,31.20
2018-07-17T13:39:07.329Z,31.10
2018-07-17T13:41:34.982Z,30.90
2018-07-17T13:44:02.727Z,31.10
2018-07-17T13:46:30.332Z,31.30
2018-07-17T13:48:58.002Z,31.30
2018-07-17T13:51:25.729Z,30.90
2018-07-17T13:53:53.381Z,30.90
2018-07-17T13:56:21.135Z,31.20
2018-07-17T13:58:48.692Z,31.40
2018-07-17T14:01:16.383Z,31.50
2018-07-17T14:03:44.947Z,31.00
2018-07-17T14:06:12.767Z,30.90
2018-07-17T14:08:40.428Z,31.20
2018-07-17T14:11:08.017Z,31.60
2018-07-17T14:13:35.693Z,31.80
2018-07-17T14:16:03.358Z,31.70
2018-07-17T14:18:30.969Z,31.60
2018-07-17T14:20:58.672Z,31.80
2018-07-17T14:23:26.294Z,31.60
2018-07-17T14:25:54.334Z,31.30
2018-07-17T14:28:21.923Z,31.20
2018-07-17T14:30:49.541Z,31.10
2018-07-17T14:33:17.713Z,31.40
2018-07-17T14:35:45.360Z,31.70
2018-07-17T14:38:13.167Z,31.90
2018-07-17T14:40:40.849Z,32.10
2018-07-17T14:43:08.457Z,32.20
2018-07-17T14:45:36.175Z,32.20
2018-07-17T14:48:04.143Z,32.00
2018-07-17T14:50:32.000Z,31.10
2018-07-17T14:52:59.622Z,30.80
2018-07-17T14:55:27.298Z,30.80
2018-07-17T14:57:55.087Z,31.00
2018-07-17T15:00:22.762Z,30.80
2018-07-17T15:02:50.412Z,30.90
2018-07-17T15:05:18.118Z,30.90
2018-07-17T15:07:45.761Z,30.60
2018-07-17T15:10:13.635Z,30.10
2018-07-17T15:12:41.284Z,29.70
2018-07-17T15:15:08.938Z,29.70
2018-07-17T15:17:36.569Z,29.80
2018-07-17T15:20:04.687Z,30.00
2018-07-17T15:22:32.461Z,30.30
2018-07-17T15:24:59.993Z,30.70
2018-07-17T15:27:27.665Z,31.00
2018-07-17T15:29:55.254Z,31.20
2018-07-17T15:32:22.928Z,31.20
2018-07-17T15:34:50.504Z,31.10
2018-07-17T15:37:18.092Z,30.90
2018-07-17T15:39:45.749Z,30.70
2018-07-17T15:42:13.342Z,30.30
2018-07-17T15:44:41.070Z,29.90
2018-07-17T15:47:08.737Z,29.70
2018-07-17T15:49:36.342Z,29.60
2018-07-17T15:52:04.042Z,29.50
2018-07-17T15:54:31.583Z,29.40
2018-07-17T15:56:59.231Z,29.40
2018-07-17T15:59:26.934Z,29.40
2018-07-17T16:01:54.573Z,29.30
2018-07-17T16:04:22.232Z,29.20
2018-07-17T16:06:49.888Z,29.10
2018-07-17T16:09:17.510Z,29.00
2018-07-17T16:11:45.215Z,28.90
2018-07-17T16:14:13.271Z,28.90
2018-07-17T16:16:40.496Z,28.70
2018-07-17T16:19:08.175Z,28.70
2018-07-17T16:21:35.869Z,28.60
2018-07-17T16:24:03.538Z,27.50
2018-07-17T16:26:31.190Z,26.40
2018-07-17T16:28:58.781Z,25.50
2018-07-17T16:31:26.424Z,24.80
2018-07-17T16:33:54.037Z,24.60
2018-07-17T16:36:21.761Z,24.40
2018-07-17T16:38:49.345Z,24.30
2018-07-17T16:41:17.363Z,24.10
2018-07-17T16:43:44.984Z,23.90
2018-07-17T16:46:12.675Z,23.50
2018-07-17T16:48:40.361Z,23.40
2018-07-17T16:51:08.031Z,23.60
2018-07-17T16:53:35.705Z,23.80
2018-07-17T16:56:03.404Z,23.80
2018-07-17T16:58:31.122Z,23.90
2018-07-17T17:00:58.749Z,23.70
2018-07-17T17:03:26.346Z,23.70
2018-07-17T17:05:53.962Z,23.80
2018-07-17T17:08:21.574Z,23.80
2018-07-17T17:10:49.203Z,23.70
2018-07-17T17:13:17.236Z,23.60
2018-07-17T17:15:44.876Z,23.60
2018-07-17T17:18:12.545Z,23.50
2018-07-17T17:20:40.220Z,23.40
2018-07-17T17:23:07.866Z,23.40
2018-07-17T17:25:35.483Z,23.40
2018-07-17T17:28:03.233Z,23.50
2018-07-17T17:30:30.920Z,23.60
2018-07-17T17:32:58.652Z,23.80
2018-07-17T17:35:26.238Z,23.90
2018-07-17T17:37:53.843Z,24.00
2018-07-17T17:40:21.476Z,24.10
2018-07-17T17:42:49.237Z,24.10
2018-07-17T17:45:16.847Z,24.10
2018-07-17T17:47:44.476Z,24.10
2018-07-17T17:50:12.139Z,24.00
2018-07-17T17:52:39.961Z,24.00
2018-07-17T17:55:13.768Z,23.90
2018-07-17T17:57:48.677Z,23.80
2018-07-17T18:00:16.577Z,23.70
2018-07-17T18:02:44.345Z,23.70
2018-07-17T18:05:12.462Z,23.70
2018-07-17T18:07:40.189Z,23.80
2018-07-17T18:10:08.011Z,23.70
2018-07-17T18:12:36.122Z,23.70
2018-07-17T18:15:05.832Z,23.80
2018-07-17T18:17:34.027Z,23.60
2018-07-17T18:20:01.689Z,23.40
2018-07-17T18:22:29.373Z,23.50
2018-07-17T18:24:57.024Z,23.40
2018-07-17T18:27:24.706Z,23.60
2018-07-17T18:29:52.435Z,23.60
2018-07-17T18:32:20.385Z,23.60
2018-07-17T18:34:48.109Z,23.60
2018-07-17T18:37:16.080Z,23.70
2018-07-17T18:39:43.809Z,23.60
2018-07-17T18:42:11.468Z,23.50
2018-07-17T18:44:39.105Z,23.40
2018-07-17T18:47:07.029Z,23.40
2018-07-17T18:49:34.659Z,23.30
2018-07-17T18:52:02.942Z,23.30
2018-07-17T18:54:30.813Z,23.30
2018-07-17T18:56:58.993Z,23.10
2018-07-17T18:59:26.710Z,23.10
2018-07-17T19:01:54.657Z,23.00
2018-07-17T19:04:22.560Z,23.10
2018-07-17T19:06:50.600Z,23.00
2018-07-17T19:09:18.272Z,23.00
2018-07-17T19:11:45.890Z,22.90
2018-07-17T19:14:13.548Z,22.80
2018-07-17T19:16:41.193Z,22.70
2018-07-17T19:19:09.324Z,22.70
2018-07-17T19:21:36.922Z,22.70
2018-07-17T19:24:04.580Z,22.60
2018-07-17T19:26:32.582Z,22.50
2018-07-17T19:29:00.259Z,22.40
2018-07-17T19:31:27.974Z,22.40
2018-07-17T19:33:55.704Z,22.30
2018-07-17T19:36:23.571Z,22.40
2018-07-17T19:38:51.236Z,22.20
2018-07-17T19:41:18.899Z,22.20
2018-07-17T19:43:46.946Z,22.20
2018-07-17T19:46:14.573Z,22.20
2018-07-17T19:48:42.166Z,22.20
2018-07-17T19:51:09.849Z,22.10
2018-07-17T19:53:37.871Z,22.10
2018-07-17T19:56:05.622Z,22.00
2018-07-17T19:58:33.244Z,21.90
2018-07-17T20:01:01.079Z,21.80
2018-07-17T20:03:28.723Z,21.80
2018-07-17T20:05:56.290Z,21.80
2018-07-17T20:08:23.959Z,21.80
2018-07-17T20:10:51.548Z,21.80
2018-07-17T20:13:19.297Z,21.70
2018-07-17T20:15:46.957Z,21.70
2018-07-17T20:18:14.647Z,21.60
2018-07-17T20:20:42.286Z,21.50
2018-07-17T20:23:09.885Z,21.40
2018-07-17T20:25:37.554Z,21.40
2018-07-17T20:28:05.304Z,21.30
2018-07-17T20:30:32.945Z,21.20
2018-07-17T20:33:00.601Z,21.10
2018-07-17T20:35:28.230Z,21.10
2018-07-17T20:37:55.852Z,21.20
2018-07-17T20:40:23.519Z,21.10
2018-07-17T20:42:51.128Z,21.20
2018-07-17T20:45:18.760Z,21.20
2018-07-17T20:47:46.632Z,21.20
2018-07-17T20:50:14.257Z,21.20
2018-07-17T20:52:41.948Z,21.20
2018-07-17T20:55:09.599Z,21.20
2018-07-17T20:57:37.231Z,21.10
2018-07-17T21:00:05.062Z,21.10
2018-07-17T21:02:32.695Z,21.00
2018-07-17T21:05:00.306Z,20.90
2018-07-17T21:07:28.109Z,20.90
2018-07-17T21:09:55.759Z,20.80
2018-07-17T21:12:23.422Z,20.70
2018-07-17T21:14:51.075Z,20.60
2018-07-17T21:17:18.687Z,20.50
2018-07-17T21:19:46.472Z,20.50
2018-07-17T21:22:14.053Z,20.40
2018-07-17T21:24:41.658Z,20.30
2018-07-17T21:27:09.318Z,20.30
2018-07-17T21:29:36.901Z,20.30
2018-07-17T21:32:04.525Z,20.30
2018-07-17T21:34:32.174Z,20.30
2018-07-17T21:36:59.794Z,20.50
2018-07-17T21:39:27.381Z,20.50
2018-07-17T21:41:55.121Z,20.50
2018-07-17T21:44:22.757Z,20.50
2018-07-17T21:46:50.369Z,20.50
2018-07-17T21:49:18.221Z,20.60
2018-07-17T21:51:45.867Z,20.60
2018-07-17T21:54:13.589Z,20.60
2018-07-17T21:56:41.234Z,20.60
2018-07-17T21:59:08.825Z,20.50
2018-07-17T22:01:36.617Z,20.40
2018-07-17T22:04:04.227Z,20.40
2018-07-17T22:06:31.781Z,20.40
2018-07-17T22:08:59.363Z,20.30
2018-07-17T22:11:26.949Z,20.30
2018-07-17T22:13:54.569Z,20.30
2018-07-17T22:16:22.157Z,20.20
2018-07-17T22:18:49.761Z,20.30
2018-07-17T22:21:17.400Z,20.20
2018-07-17T22:23:45.017Z,20.10
2018-07-17T22:26:12.652Z,20.00
2018-07-17T22:28:40.353Z,19.90
2018-07-17T22:31:07.995Z,19.80
2018-07-17T22:33:35.576Z,19.80
2018-07-17T22:36:03.221Z,19.70
2018-07-17T22:38:30.826Z,19.70
2018-07-17T22:40:58.469Z,19.70
2018-07-17T22:43:26.228Z,19.60
2018-07-17T22:45:53.862Z,19.60
2018-07-17T22:48:21.449Z,19.60
2018-07-17T22:50:49.049Z,19.50
2018-07-17T22:53:16.693Z,19.40
2018-07-17T22:55:44.375Z,19.30
2018-07-17T22:58:11.989Z,19.30
2018-07-17T23:00:39.597Z,19.30
2018-07-17T23:03:07.206Z,19.30
2018-07-17T23:05:34.877Z,19.20
2018-07-17T23:08:02.478Z,19.20
2018-07-17T23:10:30.073Z,19.20
2018-07-17T23:12:58.407Z,19.10
2018-07-17T23:15:26.021Z,19.00
2018-07-17T23:17:53.816Z,18.90
2018-07-17T23:20:21.542Z,18.90
2018-07-17T23:22:53.168Z,18.80
2018-07-17T23:25:21.909Z,18.70
2018-07-17T23:27:49.526Z,18.70
2018-07-17T23:30:17.523Z,18.70
2018-07-17T23:32:45.393Z,18.60
2018-07-17T23:35:13.040Z,18.60
2018-07-17T23:37:40.688Z,18.50
2018-07-17T23:40:08.431Z,18.50
2018-07-17T23:42:36.041Z,18.40
2018-07-17T23:45:03.758Z,18.50
2018-07-17T23:47:31.508Z,18.60
2018-07-17T23:49:59.135Z,18.50
2018-07-17T23:52:26.824Z,18.50
2018-07-17T23:54:54.684Z,18.40
2018-07-17T23:57:22.330Z,18.30
2018-07-17T23:59:49.932Z,18.20
